createdAt,value
2023-03-12T00:01:20.798Z,99641.77
2023-03-12T00:03:50.153Z,99648.80
2023-03-12T00:06:19.487Z,99657.70
2023-03-12T00:08:48.854Z,99662.40
2023-03-12T00:11:19.343Z,99659.42
2023-03-12T00:13:56.638Z,99670.11
2023-03-12T00:16:25.536Z,99677.45
2023-03-12T00:18:55.758Z,99671.86
2023-03-12T00:21:24.341Z,99678.70
2023-03-12T00:23:54.163Z,99687.94
2023-03-12T00:26:22.958Z,99694.16
2023-03-12T00:28:51.764Z,99695.92
2023-03-12T00:31:29.681Z,99700.89
2023-03-12T00:33:59.666Z,99707.54
2023-03-12T00:36:31.423Z,99713.39
2023-03-12T00:39:01.705Z,99720.73
2023-03-12T00:41:30.751Z,99718.12
2023-03-12T00:43:59.351Z,99728.77
2023-03-12T00:46:27.943Z,99731.63
2023-03-12T00:48:56.439Z,99740.55
2023-03-12T00:51:25.210Z,99753.30
2023-03-12T00:53:53.698Z,99763.95
2023-03-12T00:56:22.596Z,99760.43
2023-03-12T00:58:50.877Z,99774.60
2023-03-12T01:01:20.048Z,99778.89
2023-03-12T01:03:48.610Z,99784.35
2023-03-12T01:06:18.605Z,99794.52
2023-03-12T01:08:47.129Z,99800.61
2023-03-12T01:11:17.813Z,99802.14
2023-03-12T01:13:46.727Z,99815.55
2023-03-12T01:16:15.143Z,99820.58
2023-03-12T01:18:43.968Z,99831.00
2023-03-12T01:21:12.278Z,99835.84
2023-03-12T01:23:40.760Z,99837.11
2023-03-12T01:26:09.142Z,99850.81
2023-03-12T01:28:37.328Z,99869.04
2023-03-12T01:31:15.013Z,99866.96
2023-03-12T01:33:43.406Z,99879.33
2023-03-12T01:36:20.227Z,99891.04
2023-03-12T01:38:51.943Z,99889.23
2023-03-12T01:41:21.758Z,99889.48
2023-03-12T01:43:51.056Z,99890.92
2023-03-12T01:46:24.457Z,99893.95
2023-03-12T01:49:09.833Z,99893.12
2023-03-12T01:52:00.129Z,99899.13
2023-03-12T01:54:40.179Z,99899.69
2023-03-12T01:57:18.782Z,99902.90
2023-03-12T01:59:54.532Z,99903.06
2023-03-12T02:02:28.952Z,99908.28
2023-03-12T02:05:06.754Z,99908.95
2023-03-12T02:07:35.603Z,99908.20
2023-03-12T02:10:05.643Z,99916.11
2023-03-12T02:12:33.956Z,99924.74
2023-03-12T02:15:02.622Z,99929.85
2023-03-12T02:17:31.857Z,99933.73
2023-03-12T02:20:22.545Z,99948.42
2023-03-12T02:23:10.270Z,99953.23
2023-03-12T02:25:46.438Z,99961.72
2023-03-12T02:28:17.165Z,99970.10
2023-03-12T02:30:50.681Z,99979.81
2023-03-12T02:33:19.264Z,99981.73
2023-03-12T02:35:48.514Z,99991.31
2023-03-12T02:38:48.109Z,100002.59
2023-03-12T02:41:22.479Z,100002.00
2023-03-12T02:43:58.746Z,100013.42
2023-03-12T02:46:30.610Z,100017.89
2023-03-12T02:48:59.610Z,100019.72
2023-03-12T02:51:28.092Z,100022.57
2023-03-12T02:53:56.781Z,100028.79
2023-03-12T02:56:27.651Z,100034.32
2023-03-12T02:58:57.030Z,100041.16
2023-03-12T03:01:26.981Z,100052.78
2023-03-12T03:03:55.759Z,100059.44
2023-03-12T03:06:24.334Z,100062.91
2023-03-12T03:08:52.821Z,100063.32
2023-03-12T03:11:24.597Z,100071.34
2023-03-12T03:13:55.634Z,100080.08
2023-03-12T03:16:24.738Z,100087.54
2023-03-12T03:18:53.214Z,100090.07
2023-03-12T03:21:21.497Z,100096.73
2023-03-12T03:23:51.317Z,100106.38
2023-03-12T03:26:21.857Z,100119.58
2023-03-12T03:28:51.041Z,100125.57
2023-03-12T03:31:19.719Z,100129.95
2023-03-12T03:33:49.073Z,100131.70
2023-03-12T03:36:17.638Z,100134.73
2023-03-12T03:38:55.535Z,100132.54
2023-03-12T03:41:24.739Z,100138.60
2023-03-12T03:43:58.819Z,100141.58
2023-03-12T03:46:27.527Z,100145.92
2023-03-12T03:49:01.617Z,100148.70
2023-03-12T03:51:30.869Z,100152.21
2023-03-12T03:54:03.659Z,100154.61
2023-03-12T03:56:32.339Z,100157.93
2023-03-12T03:59:02.228Z,100157.23
2023-03-12T04:01:31.666Z,100155.77
2023-03-12T04:04:02.304Z,100151.05
2023-03-12T04:06:31.818Z,100163.06
2023-03-12T04:09:00.516Z,100172.61
2023-03-12T04:11:30.216Z,100177.46
2023-03-12T04:13:59.113Z,100181.76
2023-03-12T04:16:29.953Z,100188.64
2023-03-12T04:18:59.873Z,100183.81
2023-03-12T04:21:28.773Z,100185.13
2023-03-12T04:23:57.565Z,100185.02
2023-03-12T04:26:29.734Z,100180.52
2023-03-12T04:29:01.147Z,100181.77
2023-03-12T04:31:30.159Z,100195.77
2023-03-12T04:33:58.982Z,100204.17
2023-03-12T04:36:27.774Z,100217.86
2023-03-12T04:38:57.094Z,100223.05
2023-03-12T04:41:29.164Z,100225.70
2023-03-12T04:44:17.097Z,100224.24
2023-03-12T04:46:46.141Z,100225.11
2023-03-12T04:49:17.129Z,100222.05
2023-03-12T04:51:45.714Z,100216.85
2023-03-12T04:54:14.307Z,100214.90
2023-03-12T04:56:43.329Z,100216.87
2023-03-12T04:59:13.342Z,100226.66
2023-03-12T05:01:42.529Z,100234.62
2023-03-12T05:04:16.073Z,100256.33
2023-03-12T05:06:44.725Z,100264.52
2023-03-12T05:09:13.118Z,100272.55
2023-03-12T05:11:41.591Z,100286.83
2023-03-12T05:14:12.450Z,100293.88
2023-03-12T05:16:41.218Z,100306.09
2023-03-12T05:19:09.611Z,100318.80
2023-03-12T05:21:40.337Z,100329.73
2023-03-12T05:24:10.267Z,100335.99
2023-03-12T05:26:39.276Z,100345.32
2023-03-12T05:29:13.283Z,100355.63
2023-03-12T05:31:42.310Z,100364.86
2023-03-12T05:34:13.439Z,100369.45
2023-03-12T05:36:43.919Z,100380.21
2023-03-12T05:39:12.547Z,100384.59
2023-03-12T05:41:41.353Z,100388.49
2023-03-12T05:44:16.277Z,100392.61
2023-03-12T05:46:47.424Z,100398.45
2023-03-12T05:49:16.317Z,100403.11
2023-03-12T05:51:47.676Z,100406.44
2023-03-12T05:54:18.480Z,100409.47
2023-03-12T05:56:49.038Z,100418.96
2023-03-12T05:59:17.320Z,100427.44
2023-03-12T06:01:45.711Z,100443.06
2023-03-12T06:04:14.701Z,100445.80
2023-03-12T06:06:43.704Z,100456.39
2023-03-12T06:09:12.470Z,100463.73
2023-03-12T06:11:42.112Z,100466.45
2023-03-12T06:14:10.490Z,100472.81
2023-03-12T06:16:39.317Z,100468.14
2023-03-12T06:19:08.595Z,100485.67
2023-03-12T06:21:36.889Z,100489.98
2023-03-12T06:24:08.125Z,100492.17
2023-03-12T06:27:05.773Z,100511.23
2023-03-12T06:29:34.050Z,100515.08
2023-03-12T06:32:03.212Z,100514.61
2023-03-12T06:34:31.545Z,100527.20
2023-03-12T06:37:00.202Z,100523.56
2023-03-12T06:39:30.258Z,100520.77
2023-03-12T06:41:58.536Z,100529.23
2023-03-12T06:44:27.020Z,100533.45
2023-03-12T06:46:55.304Z,100530.55
2023-03-12T06:49:24.298Z,100528.20
2023-03-12T06:51:52.481Z,100539.66
2023-03-12T06:54:21.238Z,100531.90
2023-03-12T06:56:50.067Z,100540.92
2023-03-12T06:59:21.839Z,100545.89
2023-03-12T07:01:50.394Z,100553.55
2023-03-12T07:04:19.013Z,100556.56
2023-03-12T07:06:50.664Z,100567.17
2023-03-12T07:09:19.838Z,100569.18
2023-03-12T07:11:48.052Z,100585.40
2023-03-12T07:14:16.437Z,100588.67
2023-03-12T07:16:44.726Z,100606.75
2023-03-12T07:19:13.414Z,100605.16
2023-03-12T07:21:41.593Z,100604.27
2023-03-12T07:24:10.181Z,100602.09
2023-03-12T07:26:38.668Z,100606.15
2023-03-12T07:29:06.848Z,100607.30
2023-03-12T07:31:35.426Z,100607.77
2023-03-12T07:34:06.532Z,100612.79
2023-03-12T07:36:35.477Z,100618.88
2023-03-12T07:39:04.789Z,100625.06
2023-03-12T07:41:33.479Z,100630.61
2023-03-12T07:44:01.801Z,100629.84
2023-03-12T07:46:30.290Z,100632.77
2023-03-12T07:48:59.037Z,100641.49
2023-03-12T07:51:27.419Z,100632.06
2023-03-12T07:53:55.913Z,100636.80
2023-03-12T07:56:24.566Z,100637.60
2023-03-12T07:58:54.069Z,100638.93
2023-03-12T08:01:23.025Z,100638.02
2023-03-12T08:03:51.542Z,100642.88
2023-03-12T08:06:20.020Z,100644.25
2023-03-12T08:08:48.990Z,100658.91
2023-03-12T08:11:17.869Z,100655.48
2023-03-12T08:13:46.553Z,100665.65
2023-03-12T08:16:15.188Z,100674.27
2023-03-12T08:18:43.431Z,100677.38
2023-03-12T08:21:12.248Z,100691.89
2023-03-12T08:23:41.635Z,100687.89
2023-03-12T08:26:10.224Z,100691.83
2023-03-12T08:28:38.502Z,100695.56
2023-03-12T08:31:07.103Z,100692.20
2023-03-12T08:33:36.472Z,100704.34
2023-03-12T08:36:05.296Z,100703.61
2023-03-12T08:38:33.574Z,100707.73
2023-03-12T08:41:02.366Z,100717.73
2023-03-12T08:43:30.885Z,100709.64
2023-03-12T08:46:01.643Z,100722.16
2023-03-12T08:48:31.939Z,100722.63
2023-03-12T08:51:04.391Z,100726.08
2023-03-12T08:53:34.027Z,100718.37
2023-03-12T08:56:03.933Z,100722.10
2023-03-12T08:58:32.570Z,100732.67
2023-03-12T09:01:00.910Z,100722.56
2023-03-12T09:03:29.389Z,100741.86
2023-03-12T09:06:16.987Z,100749.98
2023-03-12T09:08:46.959Z,100746.87
2023-03-12T09:11:16.153Z,100749.95
2023-03-12T09:14:09.977Z,100757.10
2023-03-12T09:16:33.746Z,100753.77
2023-03-12T09:19:02.276Z,100760.23
2023-03-12T09:21:30.867Z,100759.27
2023-03-12T09:23:59.456Z,100759.55
2023-03-12T09:26:28.036Z,100765.62
2023-03-12T09:28:58.016Z,100752.67
2023-03-12T09:31:26.646Z,100756.82
2023-03-12T09:33:55.233Z,100761.09
2023-03-12T09:36:23.722Z,100765.09
2023-03-12T09:38:52.010Z,100763.57
2023-03-12T09:41:25.407Z,100764.22
2023-03-12T09:44:04.763Z,100760.20
2023-03-12T09:46:40.801Z,100759.53
2023-03-12T09:49:23.407Z,100767.64
2023-03-12T09:51:56.821Z,100777.61
2023-03-12T09:54:38.391Z,100772.77
2023-03-12T09:57:13.181Z,100774.08
2023-03-12T09:59:41.607Z,100771.27
2023-03-12T10:02:44.892Z,100774.41
2023-03-12T10:05:44.427Z,100767.36
2023-03-12T10:08:46.636Z,100771.84
2023-03-12T10:11:23.616Z,100768.16
2023-03-12T10:13:54.558Z,100768.05
2023-03-12T10:16:36.840Z,100767.68
2023-03-12T10:19:17.526Z,100761.74
2023-03-12T10:21:56.763Z,100764.14
2023-03-12T10:24:45.712Z,100768.48
2023-03-12T10:27:19.062Z,100764.73
2023-03-12T10:29:51.073Z,100764.05
2023-03-12T10:32:31.513Z,100759.05
2023-03-12T10:35:05.138Z,100763.97
2023-03-12T10:37:40.173Z,100762.80
2023-03-12T10:40:17.814Z,100757.83
2023-03-12T10:42:46.279Z,100754.23
2023-03-12T10:45:48.115Z,100763.79
2023-03-12T10:48:22.556Z,100761.75
2023-03-12T10:51:01.500Z,100761.54
2023-03-12T10:53:32.768Z,100762.46
2023-03-12T10:56:07.025Z,100763.41
2023-03-12T10:58:44.333Z,100766.62
2023-03-12T11:01:15.608Z,100760.04
2023-03-12T11:03:45.994Z,100752.03
2023-03-12T11:06:40.567Z,100750.45
2023-03-12T11:09:19.569Z,100755.57
2023-03-12T11:11:50.549Z,100758.82
2023-03-12T11:14:23.711Z,100756.71
2023-03-12T11:16:53.564Z,100760.27
2023-03-12T11:19:35.307Z,100756.31
2023-03-12T11:22:08.354Z,100752.71
2023-03-12T11:24:36.507Z,100745.60
2023-03-12T11:27:30.578Z,100752.65
2023-03-12T11:30:00.871Z,100752.33
2023-03-12T11:32:43.035Z,100745.88
2023-03-12T11:35:13.116Z,100747.37
2023-03-12T11:37:44.786Z,100751.45
2023-03-12T11:40:19.414Z,100751.23
2023-03-12T11:43:29.231Z,100746.35
2023-03-12T11:46:21.188Z,100744.58
2023-03-12T11:49:11.959Z,100754.54
2023-03-12T11:52:12.475Z,100754.41
2023-03-12T11:55:05.526Z,100761.03
2023-03-12T11:57:49.360Z,100761.50
2023-03-12T12:00:19.176Z,100768.87
2023-03-12T12:03:20.191Z,100765.52
2023-03-12T12:06:10.491Z,100774.54
2023-03-12T12:09:04.975Z,100775.78
2023-03-12T12:11:46.060Z,100777.81
2023-03-12T12:14:23.239Z,100784.95
2023-03-12T12:17:13.105Z,100780.05
2023-03-12T12:20:10.244Z,100776.56
2023-03-12T12:22:46.227Z,100780.14
2023-03-12T12:25:24.416Z,100788.92
2023-03-12T12:28:11.621Z,100785.14
2023-03-12T12:30:58.834Z,100779.66
2023-03-12T12:34:18.081Z,100785.30
2023-03-12T12:36:53.320Z,100783.02
2023-03-12T12:39:47.126Z,100782.70
2023-03-12T12:42:25.294Z,100781.43
2023-03-12T12:44:55.999Z,100785.59
2023-03-12T12:47:53.581Z,100783.92
2023-03-12T12:50:25.939Z,100776.77
2023-03-12T12:53:21.789Z,100778.73
2023-03-12T12:55:50.665Z,100787.10
2023-03-12T12:58:26.647Z,100794.98
2023-03-12T13:00:58.612Z,100790.36
2023-03-12T13:03:29.529Z,100791.45
2023-03-12T13:06:06.406Z,100796.07
2023-03-12T13:08:40.829Z,100792.15
2023-03-12T13:11:31.190Z,100801.75
2023-03-12T13:14:05.448Z,100792.55
2023-03-12T13:16:43.264Z,100796.84
2023-03-12T13:19:14.708Z,100796.55
2023-03-12T13:21:59.755Z,100797.16
2023-03-12T13:24:37.142Z,100798.39
2023-03-12T13:27:19.037Z,100800.31
2023-03-12T13:29:47.479Z,100803.77
2023-03-12T13:32:37.144Z,100801.73
2023-03-12T13:35:12.031Z,100798.98
2023-03-12T13:37:47.084Z,100801.80
2023-03-12T13:40:55.621Z,100797.35
2023-03-12T13:43:50.927Z,100801.02
2023-03-12T13:46:33.954Z,100797.98
2023-03-12T13:49:10.366Z,100799.39
2023-03-12T13:51:56.337Z,100803.95
2023-03-12T13:54:29.788Z,100806.89
2023-03-12T13:57:03.020Z,100802.89
2023-03-12T13:59:32.929Z,100806.75
2023-03-12T14:02:14.022Z,100802.67
2023-03-12T14:04:42.981Z,100802.96
2023-03-12T14:07:14.678Z,100803.91
2023-03-12T14:09:59.225Z,100801.85
2023-03-12T14:12:52.179Z,100804.48
2023-03-12T14:15:39.899Z,100810.52
2023-03-12T14:18:35.911Z,100810.08
2023-03-12T14:21:10.434Z,100810.81
2023-03-12T14:23:44.255Z,100808.89
2023-03-12T14:26:21.325Z,100811.99
2023-03-12T14:28:57.698Z,100812.20
2023-03-12T14:31:28.368Z,100812.07
2023-03-12T14:34:14.115Z,100808.60
2023-03-12T14:36:58.664Z,100803.60
2023-03-12T14:39:47.832Z,100792.02
2023-03-12T14:42:26.557Z,100776.67
2023-03-12T14:45:00.003Z,100779.04
2023-03-12T14:47:28.428Z,100786.51
2023-03-12T14:49:58.154Z,100800.63
2023-03-12T14:52:30.777Z,100808.09
2023-03-12T14:55:12.410Z,100809.27
2023-03-12T14:57:41.677Z,100814.04
2023-03-12T15:00:30.461Z,100821.10
2023-03-12T15:03:03.449Z,100825.31
2023-03-12T15:05:34.151Z,100827.69
2023-03-12T15:08:04.519Z,100828.19
2023-03-12T15:10:34.236Z,100834.84
2023-03-12T15:13:05.582Z,100837.12
2023-03-12T15:15:43.262Z,100843.85
2023-03-12T15:18:19.036Z,100848.39
2023-03-12T15:20:49.668Z,100848.77
2023-03-12T15:23:19.371Z,100855.20
2023-03-12T15:25:48.098Z,100862.23
2023-03-12T15:28:16.149Z,100870.31
2023-03-12T15:30:44.684Z,100875.77
2023-03-12T15:33:16.099Z,100881.77
2023-03-12T15:36:04.588Z,100889.05
2023-03-12T15:38:38.367Z,100891.19
2023-03-12T15:41:09.907Z,100897.88
2023-03-12T15:43:38.398Z,100898.08
2023-03-12T15:46:07.872Z,100902.70
2023-03-12T15:48:40.070Z,100910.34
2023-03-12T15:51:26.051Z,100911.55
2023-03-12T15:54:06.211Z,100918.52
2023-03-12T15:56:36.013Z,100920.89
2023-03-12T15:59:16.482Z,100926.55
2023-03-12T16:01:56.084Z,100928.04
2023-03-12T16:04:24.778Z,100939.34
2023-03-12T16:06:53.659Z,100942.65
2023-03-12T16:09:24.692Z,100947.16
2023-03-12T16:11:55.131Z,100954.31
2023-03-12T16:14:29.083Z,100965.30
2023-03-12T16:16:57.788Z,100971.35
2023-03-12T16:19:30.007Z,100976.33
2023-03-12T16:21:58.460Z,100980.52
2023-03-12T16:24:26.625Z,100988.05
2023-03-12T16:26:59.071Z,100992.53
2023-03-12T16:29:36.443Z,100998.13
2023-03-12T16:32:13.133Z,100995.39
2023-03-12T16:34:42.555Z,101007.52
2023-03-12T16:37:12.700Z,101009.64
2023-03-12T16:39:41.290Z,101014.70
2023-03-12T16:42:18.367Z,101019.62
2023-03-12T16:44:47.581Z,101033.66
2023-03-12T16:47:16.161Z,101036.13
2023-03-12T16:49:44.650Z,101042.00
2023-03-12T16:52:19.375Z,101045.80
2023-03-12T16:54:51.680Z,101047.33
2023-03-12T16:57:43.184Z,101051.11
2023-03-12T17:00:15.018Z,101051.79
2023-03-12T17:02:43.404Z,101058.84
2023-03-12T17:05:13.289Z,101064.39
2023-03-12T17:07:41.605Z,101066.20
2023-03-12T17:10:17.255Z,101070.89
2023-03-12T17:12:48.289Z,101074.41
2023-03-12T17:15:26.302Z,101079.45
2023-03-12T17:18:01.061Z,101085.73
2023-03-12T17:20:36.226Z,101095.00
2023-03-12T17:23:05.914Z,101097.80
2023-03-12T17:25:36.523Z,101098.67
2023-03-12T17:28:05.197Z,101099.52
2023-03-12T17:30:34.555Z,101101.65
2023-03-12T17:33:08.569Z,101105.88
2023-03-12T17:35:36.853Z,101109.74
2023-03-12T17:38:05.502Z,101114.65
2023-03-12T17:40:35.708Z,101113.13
2023-03-12T17:43:04.061Z,101120.08
2023-03-12T17:45:50.640Z,101124.64
2023-03-12T17:48:19.721Z,101130.23
2023-03-12T17:50:51.274Z,101135.34
2023-03-12T17:53:19.551Z,101134.73
2023-03-12T17:55:48.036Z,101140.63
2023-03-12T17:58:16.323Z,101138.03
2023-03-12T18:00:44.510Z,101140.21
2023-03-12T18:03:13.221Z,101141.38
2023-03-12T18:05:44.436Z,101144.41
2023-03-12T18:08:12.622Z,101146.91
2023-03-12T18:10:40.747Z,101150.77
2023-03-12T18:13:09.080Z,101145.34
2023-03-12T18:15:37.981Z,101149.44
2023-03-12T18:18:06.566Z,101150.40
2023-03-12T18:20:39.315Z,101157.48
2023-03-12T18:23:08.561Z,101161.55
2023-03-12T18:25:39.597Z,101168.20
2023-03-12T18:28:08.016Z,101175.31
2023-03-12T18:30:36.470Z,101181.30
2023-03-12T18:33:04.856Z,101181.55
2023-03-12T18:35:33.269Z,101188.10
2023-03-12T18:38:02.140Z,101195.69
2023-03-12T18:40:32.983Z,101193.67
2023-03-12T18:43:01.889Z,101201.80
2023-03-12T18:45:30.905Z,101204.73
2023-03-12T18:47:59.683Z,101206.70
2023-03-12T18:50:28.260Z,101209.58
2023-03-12T18:52:56.435Z,101218.02
2023-03-12T18:55:24.941Z,101219.63
2023-03-12T18:57:53.616Z,101232.13
2023-03-12T19:00:23.330Z,101240.55
2023-03-12T19:02:51.714Z,101241.69
2023-03-12T19:05:20.406Z,101245.04
2023-03-12T19:07:48.896Z,101250.64
2023-03-12T19:10:17.686Z,101250.48
2023-03-12T19:12:52.462Z,101257.73
2023-03-12T19:15:24.244Z,101255.84
2023-03-12T19:17:54.397Z,101257.46
2023-03-12T19:20:23.302Z,101260.59
2023-03-12T19:22:51.900Z,101260.64
2023-03-12T19:25:20.626Z,101263.83
2023-03-12T19:27:49.082Z,101267.88
2023-03-12T19:30:17.791Z,101270.74
2023-03-12T19:32:46.705Z,101282.70
2023-03-12T19:35:15.443Z,101282.33
2023-03-12T19:37:43.835Z,101282.77
2023-03-12T19:40:13.453Z,101290.40
2023-03-12T19:42:42.237Z,101291.70
2023-03-12T19:45:11.838Z,101295.59
2023-03-12T19:47:41.164Z,101299.27
2023-03-12T19:50:11.752Z,101303.59
2023-03-12T19:52:40.093Z,101306.45
2023-03-12T19:55:11.144Z,101310.88
2023-03-12T19:57:40.728Z,101312.35
2023-03-12T20:00:10.788Z,101316.04
2023-03-12T20:02:39.795Z,101320.17
2023-03-12T20:05:09.492Z,101319.34
2023-03-12T20:07:38.154Z,101323.20
2023-03-12T20:10:10.111Z,101328.61
2023-03-12T20:12:39.430Z,101336.38
2023-03-12T20:15:09.101Z,101335.09
2023-03-12T20:17:37.733Z,101338.91
2023-03-12T20:20:08.074Z,101342.74
2023-03-12T20:22:36.643Z,101344.88
2023-03-12T20:25:06.680Z,101347.69
2023-03-12T20:27:35.165Z,101352.35
2023-03-12T20:30:03.912Z,101358.17
2023-03-12T20:32:32.670Z,101358.40
2023-03-12T20:35:01.424Z,101360.92
2023-03-12T20:37:29.603Z,101364.01
2023-03-12T20:39:58.090Z,101368.86
2023-03-12T20:42:26.483Z,101373.15
2023-03-12T20:44:54.757Z,101371.25
2023-03-12T20:47:23.675Z,101370.92
2023-03-12T20:49:52.350Z,101380.04
2023-03-12T20:52:20.535Z,101377.67
2023-03-12T20:54:49.024Z,101381.18
2023-03-12T20:57:17.712Z,101386.66
2023-03-12T20:59:46.404Z,101387.09
2023-03-12T21:02:15.322Z,101389.36
2023-03-12T21:04:43.991Z,101392.73
2023-03-12T21:07:12.698Z,101399.72
2023-03-12T21:09:40.882Z,101404.67
2023-03-12T21:12:09.348Z,101412.20
2023-03-12T21:14:40.009Z,101413.84
2023-03-12T21:17:13.481Z,101416.88
2023-03-12T21:19:42.508Z,101417.85
2023-03-12T21:22:11.070Z,101421.10
2023-03-12T21:24:39.673Z,101427.55
2023-03-12T21:27:11.485Z,101429.09
2023-03-12T21:29:39.916Z,101431.95
2023-03-12T21:32:08.100Z,101430.92
2023-03-12T21:34:36.985Z,101431.65
2023-03-12T21:37:05.367Z,101430.90
2023-03-12T21:39:34.866Z,101434.00
2023-03-12T21:42:04.024Z,101438.54
2023-03-12T21:44:35.541Z,101440.70
2023-03-12T21:47:05.013Z,101445.65
2023-03-12T21:49:37.698Z,101444.02
2023-03-12T21:52:05.909Z,101450.73
2023-03-12T21:54:35.377Z,101454.69
2023-03-12T21:57:05.049Z,101457.91
2023-03-12T21:59:33.413Z,101459.34
2023-03-12T22:02:02.004Z,101465.72
2023-03-12T22:04:30.402Z,101469.84
2023-03-12T22:06:58.878Z,101467.42
2023-03-12T22:09:27.255Z,101467.00
2023-03-12T22:11:55.642Z,101470.52
2023-03-12T22:14:24.653Z,101476.08
2023-03-12T22:16:53.230Z,101477.95
2023-03-12T22:19:24.176Z,101480.86
2023-03-12T22:21:52.669Z,101488.17
2023-03-12T22:24:20.936Z,101492.92
2023-03-12T22:26:49.115Z,101497.78
2023-03-12T22:29:17.302Z,101503.70
2023-03-12T22:31:45.589Z,101513.84
2023-03-12T22:34:13.961Z,101511.78
2023-03-12T22:36:42.251Z,101514.14
2023-03-12T22:39:10.527Z,101517.45
2023-03-12T22:41:39.525Z,101518.81
2023-03-12T22:44:09.155Z,101518.73
2023-03-12T22:46:37.865Z,101522.29
2023-03-12T22:49:06.620Z,101526.02
2023-03-12T22:51:34.909Z,101532.08
2023-03-12T22:54:03.497Z,101542.15
2023-03-12T22:56:31.978Z,101541.70
2023-03-12T22:59:00.268Z,101539.46
2023-03-12T23:01:28.548Z,101539.40
2023-03-12T23:03:57.030Z,101538.07
2023-03-12T23:06:27.361Z,101543.88
2023-03-12T23:08:56.363Z,101551.94
2023-03-12T23:11:27.455Z,101557.08
2023-03-12T23:13:56.107Z,101560.96
2023-03-12T23:16:26.691Z,101561.70
2023-03-12T23:18:56.622Z,101559.48
2023-03-12T23:21:25.364Z,101558.80
2023-03-12T23:23:54.241Z,101560.48
2023-03-12T23:26:26.744Z,101564.44
2023-03-12T23:28:57.246Z,101570.69
2023-03-12T23:31:27.682Z,101567.62
2023-03-12T23:33:58.603Z,101572.53
2023-03-12T23:36:27.641Z,101574.77
2023-03-12T23:38:56.764Z,101576.11
2023-03-12T23:41:29.575Z,101584.80
2023-03-12T23:43:59.023Z,101593.86
2023-03-12T23:46:27.807Z,101590.53
2023-03-12T23:48:57.332Z,101596.13
2023-03-12T23:51:29.102Z,101600.45
2023-03-12T23:54:05.641Z,101599.55
2023-03-12T23:56:40.029Z,101598.02
2023-03-12T23:59:10.573Z,101598.81
